Time;durP1;ratioP1;P1;durP2;ratioP2;P2;SDS_P1;SDS_P2;PMS_P1;PMS_P2;Temp;Humidity;BMP_temperature;BMP_pressure;BME280_temperature;BME280_humidity;BME280_pressure;Samples;Min_cycle;Max_cycle;Signal;HPM_P1;HPM_P2
2023/02/17 00:01:21;;;;;;;10.47;7.70;;;;;;;;;;5056763;28;20028;-75
2023/02/17 00:03:50;;;;;;;11.63;7.23;;;;;;;;;;5058910;28;20093;-76
2023/02/17 00:06:17;;;;;;;11.40;7.47;;;;;;;;;;5047806;28;20048;-75
2023/02/17 00:08:43;;;;;;;12.30;8.50;;;;;;;;;;5048482;28;20063;-75
2023/02/17 00:11:12;;;;;;;11.60;7.93;;;;;;;;;;5057250;28;20036;-75
2023/02/17 00:13:38;;;;;;;11.33;7.80;;;;;;;;;;5043050;28;20043;-75
2023/02/17 00:16:31;;;;;;;13.27;7.97;;;;;;;;;;5049681;28;20128;-75
2023/02/17 00:19:00;;;;;;;10.68;7.22;;;;;;;;;;5037579;28;20373;-75
2023/02/17 00:21:28;;;;;;;15.50;7.63;;;;;;;;;;5056423;28;20067;-75
2023/02/17 00:23:58;;;;;;;10.70;7.00;;;;;;;;;;5049386;28;20036;-75
2023/02/17 00:26:24;;;;;;;10.53;7.20;;;;;;;;;;5058241;28;20133;-75
2023/02/17 00:28:52;;;;;;;11.30;6.40;;;;;;;;;;5037397;28;20108;-75
2023/02/17 00:31:20;;;;;;;8.90;6.20;;;;;;;;;;5049126;28;20058;-75
2023/02/17 00:33:48;;;;;;;10.63;6.50;;;;;;;;;;5039165;28;20330;-75
2023/02/17 00:36:18;;;;;;;12.80;5.93;;;;;;;;;;5057784;28;20107;-75
2023/02/17 00:38:45;;;;;;;9.57;6.23;;;;;;;;;;5056186;28;20124;-76
2023/02/17 00:41:11;;;;;;;8.20;6.23;;;;;;;;;;5040606;28;20098;-76
2023/02/17 00:43:37;;;;;;;11.77;7.40;;;;;;;;;;5058102;28;20032;-75
2023/02/17 00:46:05;;;;;;;10.03;6.60;;;;;;;;;;5040164;28;20484;-76
2023/02/17 00:48:34;;;;;;;10.40;6.50;;;;;;;;;;5057897;28;20032;-76
2023/02/17 00:51:00;;;;;;;10.07;6.77;;;;;;;;;;5056334;28;20036;-76
2023/02/17 00:53:26;;;;;;;8.87;7.00;;;;;;;;;;5043671;28;20033;-76
2023/02/17 00:55:54;;;;;;;8.40;6.77;;;;;;;;;;5058164;28;20047;-76
2023/02/17 00:58:20;;;;;;;9.30;7.30;;;;;;;;;;5055820;28;20027;-76
2023/02/17 01:00:46;;;;;;;9.93;7.00;;;;;;;;;;5039152;28;20369;-75
2023/02/17 01:03:15;;;;;;;10.47;6.60;;;;;;;;;;5056983;28;20051;-76
2023/02/17 01:05:42;;;;;;;10.80;6.93;;;;;;;;;;5057033;28;20115;-75
2023/02/17 01:08:08;;;;;;;9.70;6.70;;;;;;;;;;5058482;28;20047;-75
2023/02/17 01:10:36;;;;;;;13.53;6.37;;;;;;;;;;5057269;28;20036;-76
2023/02/17 01:13:02;;;;;;;8.43;6.50;;;;;;;;;;5055920;28;20500;-77
2023/02/17 01:15:28;;;;;;;11.50;6.10;;;;;;;;;;5044033;28;20028;-76
2023/02/17 01:17:54;;;;;;;9.07;6.30;;;;;;;;;;5060599;28;20053;-76
2023/02/17 01:20:20;;;;;;;9.93;6.70;;;;;;;;;;5056426;28;20036;-76
2023/02/17 01:22:46;;;;;;;10.67;6.53;;;;;;;;;;5056902;28;20064;-76
2023/02/17 01:25:12;;;;;;;10.77;6.40;;;;;;;;;;5047105;28;20029;-75
2023/02/17 01:27:38;;;;;;;9.40;6.57;;;;;;;;;;5056924;28;20115;-76
2023/02/17 01:30:07;;;;;;;8.77;6.20;;;;;;;;;;5056662;28;21730;-75
2023/02/17 01:32:33;;;;;;;10.77;6.80;;;;;;;;;;5037508;28;20044;-75
2023/02/17 01:34:59;;;;;;;7.00;5.97;;;;;;;;;;5059401;28;20028;-76
2023/02/17 01:37:25;;;;;;;11.80;6.10;;;;;;;;;;5059467;28;20109;-75
2023/02/17 01:39:51;;;;;;;10.30;5.87;;;;;;;;;;5038259;28;20437;-76
2023/02/17 01:42:19;;;;;;;11.30;6.90;;;;;;;;;;5056742;28;20024;-76
2023/02/17 01:45:04;;;;;;;14.37;6.50;;;;;;;;;;5040356;28;20021;-76
2023/02/17 01:47:30;;;;;;;11.20;6.90;;;;;;;;;;5045203;28;20068;-76
2023/02/17 01:49:56;;;;;;;10.17;6.80;;;;;;;;;;5056271;28;20765;-76
2023/02/17 01:52:24;;;;;;;9.93;6.67;;;;;;;;;;5053790;28;20028;-75
2023/02/17 01:54:53;;;;;;;12.07;7.07;;;;;;;;;;5057668;28;20040;-76
2023/02/17 01:57:23;;;;;;;10.80;7.00;;;;;;;;;;5053369;28;20077;-76
2023/02/17 01:59:49;;;;;;;10.43;6.60;;;;;;;;;;5037726;28;20037;-75
2023/02/17 02:02:16;;;;;;;9.10;6.73;;;;;;;;;;5039497;28;20037;-75
2023/02/17 02:04:44;;;;;;;9.60;7.17;;;;;;;;;;5044533;28;21697;-75
2023/02/17 02:07:13;;;;;;;12.07;7.13;;;;;;;;;;5060375;28;20032;-75
2023/02/17 02:09:42;;;;;;;13.57;7.57;;;;;;;;;;5052405;28;20118;-76
2023/02/17 02:12:16;;;;;;;8.27;6.73;;;;;;;;;;5045100;28;20024;-77
2023/02/17 02:14:42;;;;;;;9.53;7.27;;;;;;;;;;5045219;28;20041;-76
2023/02/17 02:17:16;;;;;;;10.30;6.67;;;;;;;;;;5053933;28;20059;-76
2023/02/17 02:19:48;;;;;;;14.63;8.07;;;;;;;;;;5060334;28;20338;-75
2023/02/17 02:22:14;;;;;;;11.07;7.80;;;;;;;;;;5040448;28;20039;-75
2023/02/17 02:25:04;;;;;;;12.80;7.20;;;;;;;;;;5060002;28;20028;-74
2023/02/17 02:27:41;;;;;;;12.17;7.90;;;;;;;;;;5057744;28;20162;-76
2023/02/17 02:30:10;;;;;;;14.93;7.07;;;;;;;;;;5061257;28;20753;-76
2023/02/17 02:32:49;;;;;;;10.87;7.70;;;;;;;;;;5055804;28;20040;-75
2023/02/17 02:35:17;;;;;;;12.00;7.87;;;;;;;;;;5059719;28;20078;-75
2023/02/17 02:37:50;;;;;;;10.47;7.87;;;;;;;;;;5040447;28;20033;-76
2023/02/17 02:40:19;;;;;;;13.75;8.52;;;;;;;;;;5042532;28;20356;-75
2023/02/17 02:42:48;;;;;;;10.23;8.10;;;;;;;;;;5049014;28;20032;-76
2023/02/17 02:45:16;;;;;;;10.30;7.60;;;;;;;;;;5060577;28;20017;-76
2023/02/17 02:47:50;;;;;;;12.73;8.20;;;;;;;;;;5059569;28;20115;-76
2023/02/17 02:50:27;;;;;;;11.00;7.70;;;;;;;;;;5059918;28;20603;-75
2023/02/17 02:52:53;;;;;;;12.17;8.60;;;;;;;;;;5058998;28;20044;-76
2023/02/17 02:55:24;;;;;;;10.03;7.63;;;;;;;;;;5082764;28;20111;-76
2023/02/17 02:57:53;;;;;;;10.23;7.87;;;;;;;;;;5076765;28;20170;-76
2023/02/17 03:00:37;;;;;;;11.07;6.97;;;;;;;;;;5050935;28;20025;-75
2023/02/17 03:03:03;;;;;;;11.10;7.87;;;;;;;;;;5049311;28;20033;-75
2023/02/17 03:05:50;;;;;;;13.90;7.93;;;;;;;;;;5059051;28;20033;-75
2023/02/17 03:08:31;;;;;;;12.03;7.60;;;;;;;;;;5076740;28;20036;-75
2023/02/17 03:10:57;;;;;;;8.67;6.80;;;;;;;;;;5062452;28;20029;-76
2023/02/17 03:13:23;;;;;;;9.73;7.43;;;;;;;;;;5082634;28;20459;-75
2023/02/17 03:15:49;;;;;;;11.53;6.87;;;;;;;;;;5077220;28;20028;-75
2023/02/17 03:18:15;;;;;;;11.03;8.17;;;;;;;;;;5057797;28;20025;-75
2023/02/17 03:20:52;;;;;;;11.77;7.77;;;;;;;;;;5050667;28;20047;-76
2023/02/17 03:23:19;;;;;;;10.00;7.27;;;;;;;;;;5056835;28;20514;-75
2023/02/17 03:25:47;;;;;;;8.97;6.73;;;;;;;;;;5078197;28;20028;-75
2023/02/17 03:28:14;;;;;;;10.33;7.87;;;;;;;;;;5056821;28;20039;-75
2023/02/17 03:30:40;;;;;;;10.90;7.57;;;;;;;;;;5076152;28;20086;-75
2023/02/17 03:33:06;;;;;;;9.10;6.87;;;;;;;;;;5058927;28;20047;-75
2023/02/17 03:35:32;;;;;;;11.53;7.17;;;;;;;;;;5059102;28;20391;-75
2023/02/17 03:37:58;;;;;;;11.97;7.87;;;;;;;;;;5057779;28;20012;-77
2023/02/17 03:40:24;;;;;;;9.30;6.97;;;;;;;;;;5052037;28;20374;-75
2023/02/17 03:42:50;;;;;;;10.27;7.60;;;;;;;;;;5059014;28;20099;-75
2023/02/17 03:45:16;;;;;;;10.17;7.33;;;;;;;;;;5058699;28;20107;-75
2023/02/17 03:47:42;;;;;;;9.93;7.77;;;;;;;;;;5058019;28;20025;-75
2023/02/17 03:50:10;;;;;;;9.33;7.40;;;;;;;;;;5059100;28;20036;-75
2023/02/17 03:52:36;;;;;;;7.70;6.73;;;;;;;;;;5058797;28;20600;-75
2023/02/17 03:55:02;;;;;;;8.43;6.80;;;;;;;;;;5058763;28;20025;-76
2023/02/17 03:57:30;;;;;;;10.57;6.97;;;;;;;;;;5061119;28;20086;-75
2023/02/17 03:59:56;;;;;;;10.27;7.73;;;;;;;;;;5054310;28;20083;-75
2023/02/17 04:02:22;;;;;;;9.30;7.30;;;;;;;;;;5059440;28;20220;-75
2023/02/17 04:04:48;;;;;;;9.33;7.43;;;;;;;;;;5075632;28;20029;-75
2023/02/17 04:07:14;;;;;;;10.80;6.90;;;;;;;;;;5058130;28;20412;-75
2023/02/17 04:09:40;;;;;;;10.83;6.77;;;;;;;;;;5057319;28;20043;-76
2023/02/17 04:12:06;;;;;;;12.97;6.83;;;;;;;;;;5058284;28;20345;-75
2023/02/17 04:14:32;;;;;;;9.47;6.93;;;;;;;;;;5052086;28;20035;-76
2023/02/17 04:16:58;;;;;;;7.60;6.50;;;;;;;;;;5057924;28;20084;-75
2023/02/17 04:19:24;;;;;;;7.90;6.83;;;;;;;;;;5043650;28;20078;-75
2023/02/17 04:21:50;;;;;;;8.67;6.83;;;;;;;;;;5057592;28;20036;-76
2023/02/17 04:24:16;;;;;;;12.50;7.90;;;;;;;;;;5055379;28;21609;-75
2023/02/17 04:26:42;;;;;;;9.80;6.70;;;;;;;;;;5060150;28;20039;-75
2023/02/17 04:29:08;;;;;;;9.03;7.07;;;;;;;;;;5038814;28;20040;-75
2023/02/17 04:31:34;;;;;;;9.40;6.43;;;;;;;;;;5047593;28;20036;-75
2023/02/17 04:34:00;;;;;;;10.63;6.63;;;;;;;;;;5057696;28;20037;-75
2023/02/17 04:36:26;;;;;;;9.20;6.57;;;;;;;;;;5040016;28;20032;-75
2023/02/17 04:38:52;;;;;;;8.73;6.07;;;;;;;;;;5039111;28;20024;-75
2023/02/17 04:41:18;;;;;;;8.93;6.60;;;;;;;;;;5057097;28;20039;-75
2023/02/17 04:43:44;;;;;;;8.83;6.37;;;;;;;;;;5038084;28;20038;-76
2023/02/17 04:46:10;;;;;;;7.07;5.93;;;;;;;;;;5057714;28;20048;-75
2023/02/17 04:48:36;;;;;;;10.60;6.57;;;;;;;;;;5056623;28;20036;-75
2023/02/17 04:51:02;;;;;;;6.63;5.93;;;;;;;;;;5038753;28;20082;-75
2023/02/17 04:53:28;;;;;;;7.77;6.23;;;;;;;;;;5057429;28;20033;-75
2023/02/17 04:55:54;;;;;;;8.07;5.90;;;;;;;;;;5042113;28;20024;-75
2023/02/17 04:58:21;;;;;;;8.97;6.20;;;;;;;;;;5059202;28;20107;-75
2023/02/17 05:00:47;;;;;;;9.10;5.63;;;;;;;;;;5059596;28;20029;-76
2023/02/17 05:03:13;;;;;;;8.27;6.40;;;;;;;;;;5061578;28;20032;-75
2023/02/17 05:05:39;;;;;;;8.93;5.53;;;;;;;;;;5055239;28;20040;-74
2023/02/17 05:08:05;;;;;;;7.90;6.70;;;;;;;;;;5057274;28;20035;-76
2023/02/17 05:10:31;;;;;;;8.87;5.27;;;;;;;;;;5041215;28;20027;-76
2023/02/17 05:12:57;;;;;;;8.87;6.00;;;;;;;;;;5039421;28;20032;-75
2023/02/17 05:15:23;;;;;;;12.47;6.17;;;;;;;;;;5048581;28;20469;-75
2023/02/17 05:17:49;;;;;;;9.47;6.37;;;;;;;;;;5041995;28;20039;-75
2023/02/17 05:20:15;;;;;;;6.47;5.30;;;;;;;;;;5058229;28;20095;-75
2023/02/17 05:22:44;;;;;;;8.10;5.90;;;;;;;;;;5047637;28;20449;-75
2023/02/17 05:25:10;;;;;;;7.53;5.90;;;;;;;;;;5037174;28;20062;-75
2023/02/17 05:27:36;;;;;;;8.37;5.70;;;;;;;;;;5048043;28;20496;-75
2023/02/17 05:30:02;;;;;;;11.17;6.00;;;;;;;;;;5038617;28;20029;-75
2023/02/17 05:32:28;;;;;;;7.50;5.70;;;;;;;;;;5053945;28;20094;-75
2023/02/17 05:34:54;;;;;;;7.90;6.00;;;;;;;;;;5046980;28;20369;-75
2023/02/17 05:37:20;;;;;;;9.57;6.47;;;;;;;;;;5038561;28;20035;-75
2023/02/17 05:39:46;;;;;;;7.77;5.80;;;;;;;;;;5037339;28;20025;-75
2023/02/17 05:42:14;;;;;;;7.37;5.80;;;;;;;;;;5057916;28;20028;-75
2023/02/17 05:44:40;;;;;;;9.10;6.00;;;;;;;;;;5057322;28;20047;-76
2023/02/17 05:47:15;;;;;;;7.07;5.87;;;;;;;;;;5058133;28;20029;-76
2023/02/17 05:49:41;;;;;;;7.63;5.93;;;;;;;;;;5038080;28;20067;-75
2023/02/17 05:52:07;;;;;;;9.60;6.30;;;;;;;;;;5042828;28;20053;-75
2023/02/17 05:54:33;;;;;;;6.20;5.47;;;;;;;;;;5037834;28;21021;-76
2023/02/17 05:56:59;;;;;;;7.27;5.60;;;;;;;;;;5040136;28;20093;-75
2023/02/17 05:59:25;;;;;;;9.07;6.03;;;;;;;;;;5044181;28;20032;-75
2023/02/17 06:01:51;;;;;;;6.27;5.23;;;;;;;;;;5041758;28;20123;-75
2023/02/17 06:04:17;;;;;;;8.10;5.13;;;;;;;;;;5055887;28;20112;-76
2023/02/17 06:06:43;;;;;;;9.37;5.53;;;;;;;;;;5047211;28;20250;-74
2023/02/17 06:09:09;;;;;;;7.50;5.17;;;;;;;;;;5056009;28;20548;-76
2023/02/17 06:11:35;;;;;;;7.20;5.17;;;;;;;;;;5055377;28;20036;-75
2023/02/17 06:14:01;;;;;;;10.17;5.37;;;;;;;;;;5057649;28;20051;-76
2023/02/17 06:16:30;;;;;;;7.63;5.27;;;;;;;;;;5039923;28;20059;-74
2023/02/17 06:18:56;;;;;;;7.80;5.33;;;;;;;;;;5055770;28;20061;-75
2023/02/17 06:21:26;;;;;;;6.27;5.30;;;;;;;;;;5046594;28;20068;-75
2023/02/17 06:23:52;;;;;;;7.37;5.93;;;;;;;;;;5056806;28;20036;-76
2023/02/17 06:26:18;;;;;;;7.20;5.20;;;;;;;;;;5054511;28;20028;-75
2023/02/17 06:28:44;;;;;;;6.57;5.00;;;;;;;;;;5039454;28;20028;-76
2023/02/17 06:31:13;;;;;;;7.63;5.13;;;;;;;;;;5053165;28;20067;-75
2023/02/17 06:33:41;;;;;;;6.53;4.53;;;;;;;;;;5056655;28;20033;-75
2023/02/17 06:36:10;;;;;;;7.53;5.43;;;;;;;;;;5037928;28;20044;-75
2023/02/17 06:38:39;;;;;;;11.87;5.97;;;;;;;;;;5038516;28;20025;-75
2023/02/17 06:41:05;;;;;;;6.87;5.50;;;;;;;;;;5053837;28;20045;-76
2023/02/17 06:43:31;;;;;;;9.17;5.57;;;;;;;;;;5053372;28;20891;-75
2023/02/17 06:45:57;;;;;;;9.27;5.63;;;;;;;;;;5054132;28;20032;-75
2023/02/17 06:48:22;;;;;;;6.00;4.50;;;;;;;;;;5055805;28;20052;-75
2023/02/17 06:50:51;;;;;;;8.70;4.93;;;;;;;;;;5055457;28;20077;-75
2023/02/17 06:53:17;;;;;;;8.27;5.40;;;;;;;;;;5057613;28;20044;-76
2023/02/17 06:55:43;;;;;;;7.23;5.63;;;;;;;;;;5050509;28;20033;-75
2023/02/17 06:58:09;;;;;;;9.37;5.40;;;;;;;;;;5049948;28;20037;-76
2023/02/17 07:00:35;;;;;;;8.73;5.17;;;;;;;;;;5041822;28;20451;-76
2023/02/17 07:03:01;;;;;;;8.23;5.63;;;;;;;;;;5058882;28;20068;-75
2023/02/17 07:05:27;;;;;;;9.17;5.60;;;;;;;;;;5058109;28;20028;-76
2023/02/17 07:07:54;;;;;;;10.20;5.47;;;;;;;;;;5058603;28;20486;-75
2023/02/17 07:10:20;;;;;;;9.03;5.53;;;;;;;;;;5056498;28;20028;-75
2023/02/17 07:12:46;;;;;;;8.87;5.93;;;;;;;;;;5042241;28;20675;-76
2023/02/17 07:15:13;;;;;;;7.67;5.63;;;;;;;;;;5057576;28;20037;-75
2023/02/17 07:17:42;;;;;;;9.10;6.10;;;;;;;;;;5059606;28;20703;-75
2023/02/17 07:20:08;;;;;;;8.33;5.93;;;;;;;;;;5059151;28;20067;-75
2023/02/17 07:22:36;;;;;;;7.50;6.13;;;;;;;;;;5042782;28;20089;-76
2023/02/17 07:25:02;;;;;;;8.37;5.53;;;;;;;;;;5058483;28;20029;-75
2023/02/17 07:27:29;;;;;;;11.93;6.30;;;;;;;;;;5059036;28;20075;-75
2023/02/17 07:29:55;;;;;;;8.30;5.93;;;;;;;;;;5039546;28;20094;-75
2023/02/17 07:32:21;;;;;;;8.07;6.17;;;;;;;;;;5038786;28;20044;-74
2023/02/17 07:34:47;;;;;;;8.87;5.27;;;;;;;;;;5058074;28;20385;-76
2023/02/17 07:37:16;;;;;;;10.60;5.33;;;;;;;;;;5046828;28;20036;-76
2023/02/17 07:39:42;;;;;;;6.73;4.87;;;;;;;;;;5053342;28;20445;-76
2023/02/17 07:42:08;;;;;;;9.90;6.23;;;;;;;;;;5044278;28;20098;-75
2023/02/17 07:44:34;;;;;;;8.53;5.37;;;;;;;;;;5061356;28;20098;-76
2023/02/17 07:47:00;;;;;;;6.87;5.03;;;;;;;;;;5062357;28;20040;-75
2023/02/17 07:49:26;;;;;;;9.07;5.53;;;;;;;;;;5040646;28;20040;-75
2023/02/17 07:51:52;;;;;;;6.67;4.70;;;;;;;;;;5039839;28;20040;-76
2023/02/17 07:54:20;;;;;;;7.87;5.07;;;;;;;;;;5044050;28;20040;-76
2023/02/17 07:56:49;;;;;;;6.43;4.87;;;;;;;;;;5047034;28;20530;-75
2023/02/17 07:59:15;;;;;;;8.30;4.87;;;;;;;;;;5041138;28;20770;-76
2023/02/17 08:01:41;;;;;;;9.27;5.23;;;;;;;;;;5058044;28;20033;-75
2023/02/17 08:04:07;;;;;;;7.33;5.33;;;;;;;;;;5056610;28;20611;-75
2023/02/17 08:06:33;;;;;;;8.67;5.30;;;;;;;;;;5056421;28;20040;-76
2023/02/17 08:14:30;;;;;;;6.47;5.30;;;;;;;;;;5058398;28;20047;-74
2023/02/17 08:16:56;;;;;;;7.47;4.43;;;;;;;;;;5056912;28;20024;-74
2023/02/17 08:19:22;;;;;;;6.93;5.43;;;;;;;;;;5045428;28;20024;-75
2023/02/17 08:21:49;;;;;;;6.23;4.70;;;;;;;;;;5044954;28;20040;-75
2023/02/17 08:24:15;;;;;;;5.73;4.40;;;;;;;;;;5058432;28;20032;-75
2023/02/17 08:26:41;;;;;;;7.13;4.43;;;;;;;;;;5039512;28;20102;-74
2023/02/17 08:29:07;;;;;;;9.90;4.97;;;;;;;;;;5042808;28;20132;-74
2023/02/17 08:31:35;;;;;;;7.23;4.23;;;;;;;;;;5056800;28;20045;-75
2023/02/17 08:34:02;;;;;;;6.47;4.30;;;;;;;;;;5058134;28;20041;-75
2023/02/17 08:36:31;;;;;;;6.00;4.67;;;;;;;;;;5056609;28;20036;-75
2023/02/17 08:38:57;;;;;;;5.80;4.13;;;;;;;;;;5047257;28;20446;-77
2023/02/17 08:41:28;;;;;;;5.53;4.50;;;;;;;;;;5038572;28;20484;-75
2023/02/17 08:43:54;;;;;;;5.47;4.00;;;;;;;;;;5071800;28;20349;-75
2023/02/17 08:46:21;;;;;;;4.37;3.40;;;;;;;;;;5058955;28;20101;-75
2023/02/17 08:48:47;;;;;;;8.33;4.30;;;;;;;;;;5053391;28;20094;-75
2023/02/17 08:51:14;;;;;;;5.57;4.40;;;;;;;;;;5056860;28;20119;-75
2023/02/17 08:53:40;;;;;;;5.23;4.53;;;;;;;;;;5057714;28;20326;-75
2023/02/17 08:56:06;;;;;;;6.73;3.47;;;;;;;;;;5057793;28;20040;-75
2023/02/17 08:58:33;;;;;;;10.27;4.00;;;;;;;;;;5057519;28;20469;-75
2023/02/17 09:00:59;;;;;;;5.33;4.03;;;;;;;;;;5056925;28;20101;-75
2023/02/17 09:03:25;;;;;;;5.83;3.73;;;;;;;;;;5061075;28;20028;-75
2023/02/17 09:05:57;;;;;;;6.67;4.07;;;;;;;;;;5089984;28;20028;-74
2023/02/17 09:08:24;;;;;;;7.63;3.25;;;;;;;;;;5057300;28;20032;-75
2023/02/17 09:10:50;;;;;;;5.83;4.13;;;;;;;;;;5075862;28;20146;-75
2023/02/17 09:13:16;;;;;;;6.20;3.90;;;;;;;;;;5053837;28;20456;-76
2023/02/17 09:15:42;;;;;;;4.87;3.80;;;;;;;;;;5054892;28;20028;-75
2023/02/17 09:18:08;;;;;;;5.03;3.27;;;;;;;;;;5059482;28;20049;-76
2023/02/17 09:20:35;;;;;;;5.67;3.10;;;;;;;;;;5070097;28;20035;-76
2023/02/17 09:23:01;;;;;;;5.37;3.83;;;;;;;;;;5053882;28;20326;-76
2023/02/17 09:25:27;;;;;;;4.30;2.83;;;;;;;;;;5058137;28;20020;-75
2023/02/17 09:27:55;;;;;;;5.00;3.27;;;;;;;;;;5078806;28;20024;-75
2023/02/17 09:30:21;;;;;;;6.10;3.27;;;;;;;;;;5058089;28;20400;-76
2023/02/17 09:32:47;;;;;;;6.33;2.90;;;;;;;;;;5054644;28;20509;-75
2023/02/17 09:35:15;;;;;;;4.30;3.23;;;;;;;;;;5071455;28;20461;-75
2023/02/17 09:37:41;;;;;;;5.40;3.13;;;;;;;;;;5065096;28;20025;-74
2023/02/17 09:40:08;;;;;;;5.40;2.97;;;;;;;;;;5052250;28;20148;-76
2023/02/17 09:42:38;;;;;;;8.23;3.07;;;;;;;;;;5060026;28;20388;-74
2023/02/17 09:45:09;;;;;;;4.97;2.77;;;;;;;;;;5055204;28;20066;-76
2023/02/17 09:47:42;;;;;;;4.60;3.10;;;;;;;;;;5074612;28;20594;-75
2023/02/17 09:50:11;;;;;;;4.90;3.20;;;;;;;;;;5056378;28;20529;-76
2023/02/17 09:52:47;;;;;;;9.60;4.10;;;;;;;;;;5075369;28;20037;-76
2023/02/17 09:55:24;;;;;;;14.87;2.90;;;;;;;;;;5056731;28;20025;-76
2023/02/17 09:57:57;;;;;;;5.47;2.50;;;;;;;;;;5069724;28;20016;-76
2023/02/17 10:00:43;;;;;;;3.50;2.40;;;;;;;;;;5066245;28;20627;-75
2023/02/17 10:03:22;;;;;;;3.57;2.50;;;;;;;;;;5077345;28;20031;-75
2023/02/17 10:05:52;;;;;;;7.33;3.20;;;;;;;;;;5060938;28;20033;-76
2023/02/17 10:08:21;;;;;;;4.70;2.80;;;;;;;;;;5078381;28;20402;-76
2023/02/17 10:10:47;;;;;;;3.80;2.57;;;;;;;;;;5065521;28;20032;-76
2023/02/17 10:13:15;;;;;;;6.50;2.87;;;;;;;;;;5059571;28;20105;-75
2023/02/17 10:15:43;;;;;;;5.68;2.58;;;;;;;;;;5049180;28;20029;-75
2023/02/17 10:18:16;;;;;;;7.72;3.03;;;;;;;;;;5043551;28;20043;-75
2023/02/17 10:20:47;;;;;;;3.78;2.20;;;;;;;;;;5055016;28;20021;-76
2023/02/17 10:23:15;;;;;;;5.03;2.42;;;;;;;;;;5055802;28;20150;-76
2023/02/17 10:25:52;;;;;;;2.83;2.40;;;;;;;;;;5056023;28;20029;-75
2023/02/17 10:28:38;;;;;;;6.13;2.40;;;;;;;;;;5063718;28;20106;-77
2023/02/17 10:31:12;;;;;;;3.43;2.43;;;;;;;;;;5031554;28;20090;-75
2023/02/17 10:33:45;;;;;;;4.60;2.37;;;;;;;;;;5047498;28;20036;-76
2023/02/17 10:36:24;;;;;;;3.17;2.22;;;;;;;;;;5060564;28;20747;-75
2023/02/17 10:39:13;;;;;;;4.90;2.60;;;;;;;;;;5047663;28;20036;-76
2023/02/17 10:41:39;;;;;;;6.82;2.20;;;;;;;;;;5046840;28;20029;-75
2023/02/17 10:44:11;;;;;;;7.47;2.33;;;;;;;;;;5052077;28;20140;-75
2023/02/17 10:46:39;;;;;;;2.97;2.10;;;;;;;;;;5046567;28;20036;-76
2023/02/17 10:49:05;;;;;;;3.10;2.30;;;;;;;;;;5061116;28;20351;-75
2023/02/17 10:51:31;;;;;;;3.05;1.95;;;;;;;;;;5061256;28;20037;-75
2023/02/17 10:54:03;;;;;;;3.00;2.03;;;;;;;;;;5062843;28;20028;-76
2023/02/17 10:56:42;;;;;;;5.03;1.80;;;;;;;;;;5052377;28;20037;-75
2023/02/17 10:59:14;;;;;;;5.93;2.03;;;;;;;;;;5045990;28;20044;-76
2023/02/17 11:01:41;;;;;;;4.15;2.05;;;;;;;;;;5059645;28;20179;-75
2023/02/17 11:04:08;;;;;;;2.60;1.48;;;;;;;;;;5062615;28;20040;-76
2023/02/17 11:06:41;;;;;;;6.55;2.00;;;;;;;;;;5060422;28;20031;-75
2023/02/17 11:09:17;;;;;;;3.63;1.90;;;;;;;;;;5051844;28;20476;-74
2023/02/17 11:11:50;;;;;;;2.55;1.63;;;;;;;;;;5049591;28;20048;-76
2023/02/17 11:14:23;;;;;;;7.30;2.13;;;;;;;;;;5058473;28;20036;-76
2023/02/17 11:16:57;;;;;;;4.80;2.13;;;;;;;;;;5058842;28;20025;-75
2023/02/17 11:19:26;;;;;;;2.55;1.52;;;;;;;;;;5040462;28;20058;-75
2023/02/17 11:21:53;;;;;;;7.13;1.48;;;;;;;;;;5060807;28;20147;-77
2023/02/17 11:24:19;;;;;;;3.30;1.25;;;;;;;;;;5042679;28;20035;-76
2023/02/17 11:26:55;;;;;;;4.72;1.65;;;;;;;;;;5057619;28;20029;-76
2023/02/17 11:29:22;;;;;;;6.75;1.60;;;;;;;;;;5040622;28;20021;-77
2023/02/17 11:31:55;;;;;;;5.30;1.60;;;;;;;;;;5058211;28;20037;-77
2023/02/17 11:34:23;;;;;;;4.25;1.65;;;;;;;;;;5058776;28;20044;-76
2023/02/17 11:36:57;;;;;;;5.32;1.80;;;;;;;;;;5040489;28;20025;-76
2023/02/17 11:39:24;;;;;;;3.83;1.95;;;;;;;;;;5059225;28;20029;-77
2023/02/17 11:41:50;;;;;;;5.13;1.67;;;;;;;;;;5044708;28;20556;-77
2023/02/17 11:44:23;;;;;;;4.32;1.52;;;;;;;;;;5039750;28;20159;-77
2023/02/17 11:46:55;;;;;;;6.20;1.40;;;;;;;;;;5058522;28;20055;-77
2023/02/17 11:49:40;;;;;;;8.20;1.77;;;;;;;;;;5050313;28;20262;-77
2023/02/17 11:52:09;;;;;;;6.50;1.52;;;;;;;;;;5049168;28;20040;-72
2023/02/17 11:54:47;;;;;;;6.28;2.25;;;;;;;;;;5057013;28;20430;-78
2023/02/17 11:57:22;;;;;;;7.82;2.03;;;;;;;;;;5048097;28;20430;-77
2023/02/17 12:00:04;;;;;;;7.07;1.80;;;;;;;;;;5059150;28;20028;-77
2023/02/17 12:02:45;;;;;;;7.03;1.65;;;;;;;;;;5042021;28;20113;-77
2023/02/17 12:05:24;;;;;;;6.03;1.17;;;;;;;;;;5057160;28;20032;-77
2023/02/17 12:08:02;;;;;;;6.80;1.77;;;;;;;;;;5060550;28;20025;-77
2023/02/17 12:10:48;;;;;;;5.15;1.38;;;;;;;;;;5057773;28;20020;-76
2023/02/17 12:13:17;;;;;;;2.92;1.08;;;;;;;;;;5041431;28;20052;-77
2023/02/17 12:15:46;;;;;;;6.13;1.50;;;;;;;;;;5057664;28;20025;-77
2023/02/17 12:18:23;;;;;;;2.78;1.42;;;;;;;;;;5044993;28;20051;-76
2023/02/17 12:21:00;;;;;;;4.15;1.48;;;;;;;;;;5060825;28;20025;-76
2023/02/17 12:23:35;;;;;;;11.38;1.88;;;;;;;;;;5042066;28;20033;-76
2023/02/17 12:26:07;;;;;;;9.90;1.90;;;;;;;;;;5057577;28;20021;-78
2023/02/17 12:28:38;;;;;;;14.10;1.95;;;;;;;;;;5056498;28;20037;-77
2023/02/17 12:31:14;;;;;;;10.10;2.08;;;;;;;;;;5058137;28;20025;-76
2023/02/17 12:34:02;;;;;;;16.55;2.75;;;;;;;;;;5056439;28;20043;-76
2023/02/17 12:36:34;;;;;;;26.35;1.98;;;;;;;;;;5058631;28;20074;-77
2023/02/17 12:39:03;;;;;;;16.52;2.10;;;;;;;;;;5058507;28;20071;-77
2023/02/17 12:41:40;;;;;;;15.27;1.77;;;;;;;;;;5056523;28;20140;-77
2023/02/17 12:44:07;;;;;;;21.35;1.73;;;;;;;;;;5057482;28;20461;-77
2023/02/17 12:46:41;;;;;;;11.50;2.20;;;;;;;;;;5058527;28;20038;-77
2023/02/17 12:49:10;;;;;;;16.60;2.40;;;;;;;;;;5063143;28;20071;-78
2023/02/17 12:51:52;;;;;;;11.73;2.00;;;;;;;;;;5055938;28;20033;-78
2023/02/17 12:54:23;;;;;;;7.22;2.08;;;;;;;;;;5057165;28;20114;-77
2023/02/17 12:56:55;;;;;;;16.27;1.67;;;;;;;;;;5043122;28;20047;-78
2023/02/17 12:59:25;;;;;;;20.85;2.22;;;;;;;;;;5058514;28;20032;-78
2023/02/17 13:01:56;;;;;;;10.73;2.08;;;;;;;;;;5056743;28;20095;-78
2023/02/17 13:04:24;;;;;;;20.75;2.95;;;;;;;;;;5022308;28;20037;-77
2023/02/17 13:06:55;;;;;;;13.60;1.88;;;;;;;;;;5047785;28;20330;-78
2023/02/17 13:09:28;;;;;;;12.83;3.50;;;;;;;;;;5057427;28;20072;-78
2023/02/17 13:12:06;;;;;;;12.45;2.13;;;;;;;;;;5046388;28;20021;-78
2023/02/17 13:14:38;;;;;;;21.35;2.28;;;;;;;;;;5059043;28;20472;-77
2023/02/17 13:17:04;;;;;;;10.93;1.80;;;;;;;;;;5057963;28;20032;-79
2023/02/17 13:19:31;;;;;;;7.93;1.83;;;;;;;;;;5058290;28;20090;-78
2023/02/17 13:21:58;;;;;;;11.80;1.65;;;;;;;;;;5059061;28;20040;-78
2023/02/17 13:24:33;;;;;;;12.10;2.03;;;;;;;;;;5040885;28;20082;-77
2023/02/17 13:27:09;;;;;;;12.30;1.70;;;;;;;;;;5058444;28;20025;-78
2023/02/17 13:29:35;;;;;;;10.20;1.60;;;;;;;;;;5050746;28;20032;-77
2023/02/17 13:32:03;;;;;;;15.05;2.03;;;;;;;;;;5043161;28;20044;-78
2023/02/17 13:34:32;;;;;;;15.45;2.15;;;;;;;;;;5056308;28;20036;-78
2023/02/17 13:36:58;;;;;;;15.95;1.92;;;;;;;;;;5058433;28;20020;-76
2023/02/17 13:39:27;;;;;;;20.23;2.53;;;;;;;;;;5049842;28;20020;-77
2023/02/17 13:41:58;;;;;;;7.25;2.20;;;;;;;;;;5041888;28;20029;-77
2023/02/17 13:44:26;;;;;;;10.27;2.80;;;;;;;;;;5056680;28;20073;-76
2023/02/17 13:46:54;;;;;;;12.25;1.77;;;;;;;;;;5057072;28;20033;-77
2023/02/17 13:49:21;;;;;;;5.95;1.95;;;;;;;;;;5059623;28;20075;-75
2023/02/17 13:51:47;;;;;;;12.30;2.70;;;;;;;;;;5056287;28;20102;-75
2023/02/17 13:54:14;;;;;;;6.90;2.15;;;;;;;;;;5056191;28;20146;-74
2023/02/17 13:56:40;;;;;;;14.00;2.80;;;;;;;;;;5041762;28;20349;-75
2023/02/17 13:59:17;;;;;;;13.00;1.90;;;;;;;;;;5055942;28;20041;-74
2023/02/17 14:01:44;;;;;;;22.33;2.70;;;;;;;;;;5057388;28;20025;-74
2023/02/17 14:04:27;;;;;;;11.15;2.70;;;;;;;;;;5044092;28;20099;-75
2023/02/17 14:06:56;;;;;;;10.27;2.30;;;;;;;;;;5061918;28;20035;-76
2023/02/17 14:09:27;;;;;;;8.48;2.00;;;;;;;;;;5044876;28;20028;-75
2023/02/17 14:11:54;;;;;;;8.48;1.95;;;;;;;;;;5050841;28;20453;-76
2023/02/17 14:14:21;;;;;;;13.15;2.78;;;;;;;;;;5062782;28;20174;-74
2023/02/17 14:16:56;;;;;;;5.43;1.90;;;;;;;;;;5058698;28;20099;-75
2023/02/17 14:19:22;;;;;;;15.65;2.10;;;;;;;;;;5047874;28;20044;-76
2023/02/17 14:22:04;;;;;;;7.60;2.15;;;;;;;;;;5062231;28;20029;-76
2023/02/17 14:24:31;;;;;;;6.38;1.73;;;;;;;;;;5046350;28;20115;-75
2023/02/17 14:26:59;;;;;;;4.25;2.00;;;;;;;;;;5047293;28;20044;-75
2023/02/17 14:29:25;;;;;;;3.10;1.40;;;;;;;;;;5042709;28;20029;-75
2023/02/17 14:31:52;;;;;;;7.80;1.70;;;;;;;;;;5058671;28;20043;-76
2023/02/17 14:34:44;;;;;;;9.55;1.63;;;;;;;;;;5061490;28;20029;-76
2023/02/17 14:37:17;;;;;;;2.28;1.23;;;;;;;;;;5048380;28;20244;-76
2023/02/17 14:39:43;;;;;;;5.80;2.03;;;;;;;;;;5050976;28;21567;-78
2023/02/17 14:42:09;;;;;;;5.13;1.50;;;;;;;;;;5043250;28;20031;-75
2023/02/17 14:44:35;;;;;;;4.72;1.70;;;;;;;;;;5059437;28;20334;-76
2023/02/17 14:47:01;;;;;;;3.75;1.65;;;;;;;;;;5058538;28;20174;-77
2023/02/17 14:49:27;;;;;;;4.15;2.05;;;;;;;;;;5056064;28;20033;-76
2023/02/17 14:51:53;;;;;;;5.35;1.95;;;;;;;;;;5050698;28;20129;-76
2023/02/17 14:54:19;;;;;;;9.43;1.88;;;;;;;;;;5051493;28;20028;-77